createdAt,value
2019-04-19T00:13:30.000Z,22.33
2019-04-19T00:23:30.000Z,22.26
2019-04-19T00:33:30.000Z,22.24
2019-04-19T00:43:30.000Z,22.23
2019-04-19T00:53:30.000Z,22.2
2019-04-19T01:03:30.000Z,22.16
2019-04-19T01:13:30.000Z,22.13
2019-04-19T01:23:30.000Z,22.11
2019-04-19T01:33:30.000Z,22.1
2019-04-19T01:43:30.000Z,22.05
2019-04-19T01:53:30.000Z,22.04
2019-04-19T02:03:30.000Z,22
2019-04-19T02:13:30.000Z,22
2019-04-19T02:23:30.000Z,21.95
2019-04-19T02:33:31.000Z,21.92
2019-04-19T02:43:31.000Z,21.91
2019-04-19T02:53:35.000Z,21.88
2019-04-19T03:13:33.000Z,21.85
2019-04-19T03:23:31.000Z,21.84
2019-04-19T03:33:31.000Z,21.82
2019-04-19T03:43:31.000Z,21.78
2019-04-19T03:53:31.000Z,21.7
2019-04-19T04:03:31.000Z,21.67
2019-04-19T04:13:31.000Z,21.62
2019-04-19T04:23:31.000Z,21.58
2019-04-19T04:33:31.000Z,21.58
2019-04-19T04:43:31.000Z,21.56
2019-04-19T04:53:31.000Z,21.57
2019-04-19T05:03:31.000Z,21.57
2019-04-19T05:13:31.000Z,21.57
2019-04-19T05:23:31.000Z,21.54
2019-04-19T05:33:31.000Z,21.55
2019-04-19T05:53:31.000Z,21.6
2019-04-19T06:03:32.000Z,21.65
2019-04-19T06:13:32.000Z,21.68
2019-04-19T06:23:31.000Z,21.67
2019-04-19T06:33:31.000Z,21.73
2019-04-19T06:43:31.000Z,21.7
2019-04-19T06:53:31.000Z,21.73
2019-04-19T07:03:31.000Z,21.74
2019-04-19T07:13:31.000Z,21.75
2019-04-19T07:23:31.000Z,21.77
2019-04-19T07:33:32.000Z,21.81
2019-04-19T07:43:31.000Z,21.9
2019-04-19T07:53:31.000Z,22
2019-04-19T08:03:31.000Z,22.04
2019-04-19T08:33:31.000Z,22.19
2019-04-19T08:43:31.000Z,22.36
2019-04-19T08:53:31.000Z,22.65
2019-04-19T09:03:31.000Z,22.7
2019-04-19T09:13:32.000Z,22.81
2019-04-19T09:23:31.000Z,23.07
2019-04-19T09:33:31.000Z,23.46
2019-04-19T09:43:32.000Z,23.39
2019-04-19T09:53:31.000Z,23.6
2019-04-19T10:03:31.000Z,23.73
2019-04-19T10:13:31.000Z,23.78
2019-04-19T10:23:32.000Z,23.88
2019-04-19T10:33:32.000Z,24.02
2019-04-19T10:43:32.000Z,24.09
2019-04-19T10:53:32.000Z,24.18
2019-04-19T11:03:32.000Z,24.15
2019-04-19T11:23:33.000Z,23.67
2019-04-19T11:33:32.000Z,23.8
2019-04-19T11:43:32.000Z,23.57
2019-04-19T11:53:32.000Z,23.67
2019-04-19T12:03:32.000Z,23.75
2019-04-19T12:13:34.000Z,23.71
2019-04-19T12:23:35.000Z,23.73
2019-04-19T12:33:32.000Z,23.87
2019-04-19T12:53:32.000Z,23.97
2019-04-19T13:03:32.000Z,23.99
2019-04-19T13:13:34.000Z,24.01
2019-04-19T13:23:32.000Z,24.01
2019-04-19T13:33:33.000Z,24.04
2019-04-19T13:43:36.000Z,24.06
2019-04-19T13:53:32.000Z,24.05
2019-04-19T14:03:34.000Z,24.03
2019-04-19T14:13:32.000Z,24.04
2019-04-19T14:23:32.000Z,24.03
2019-04-19T14:33:32.000Z,24.02
2019-04-19T14:43:32.000Z,24.02
2019-04-19T14:53:32.000Z,24.01
2019-04-19T15:03:32.000Z,24.02
2019-04-19T15:13:32.000Z,24.02
2019-04-19T15:23:32.000Z,23.91
2019-04-19T15:33:32.000Z,24
2019-04-19T15:43:32.000Z,24.03
2019-04-19T15:53:32.000Z,24.08
2019-04-19T16:03:34.000Z,24.03
2019-04-19T16:13:32.000Z,24
2019-04-19T16:23:32.000Z,23.99
2019-04-19T16:33:32.000Z,23.98
2019-04-19T16:43:32.000Z,23.97
2019-04-19T16:53:32.000Z,23.98
2019-04-19T17:13:32.000Z,23.97
2019-04-19T17:23:32.000Z,23.93
2019-04-19T17:33:32.000Z,23.9
2019-04-19T17:43:32.000Z,23.87
2019-04-19T17:53:33.000Z,23.84
2019-04-19T18:03:32.000Z,23.83
2019-04-19T18:13:32.000Z,23.84
2019-04-19T18:23:32.000Z,23.79
2019-04-19T18:33:32.000Z,23.75
2019-04-19T18:43:32.000Z,23.71
2019-04-19T18:53:32.000Z,23.69
2019-04-19T19:03:33.000Z,23.68
2019-04-19T19:13:34.000Z,23.64
2019-04-19T19:23:33.000Z,23.61
2019-04-19T19:33:33.000Z,23.59
2019-04-19T19:43:36.000Z,23.57
2019-04-19T20:03:33.000Z,23.49
2019-04-19T20:13:33.000Z,23.47
2019-04-19T20:23:33.000Z,23.45
2019-04-19T20:33:34.000Z,23.41
2019-04-19T20:43:33.000Z,23.44
2019-04-19T20:53:33.000Z,23.45
2019-04-19T21:03:35.000Z,23.43
2019-04-19T21:13:33.000Z,23.41
2019-04-19T21:23:33.000Z,23.41
2019-04-19T21:33:33.000Z,23.38
2019-04-19T21:43:34.000Z,23.34
2019-04-19T22:13:33.000Z,23.29
2019-04-19T22:23:33.000Z,23.23
2019-04-19T22:43:34.000Z,23.15
2019-04-19T22:53:33.000Z,23.11
2019-04-19T23:03:34.000Z,23.09
2019-04-19T23:13:33.000Z,23.05
2019-04-19T23:23:35.000Z,23.08
2019-04-19T23:33:33.000Z,23.07
2019-04-19T23:43:33.000Z,23.05
2019-04-19T23:53:37.000Z,23.04
